createdAt,value
2022-11-03T00:01:17.470Z,98757.4959792093
2022-11-03T00:04:20.148Z,98752.20088977773
2022-11-03T00:07:20.505Z,98753.40250599985
2022-11-03T00:11:16.740Z,98756.26943993701
2022-11-03T00:14:16.989Z,98757.5316048359
2022-11-03T00:17:16.216Z,98756.05255232047
2022-11-03T00:21:17.425Z,98759.14272069938
2022-11-03T00:24:16.584Z,98757.09582316245
2022-11-03T00:27:16.752Z,98755.26178413071
2022-11-03T00:31:19.130Z,98754.74427424738
2022-11-03T00:34:17.020Z,98759.02949050855
2022-11-03T00:37:17.235Z,98758.40028748832
2022-11-03T00:41:19.006Z,98757.17384362599
2022-11-03T00:44:16.384Z,98758.13408319883
2022-11-03T00:47:21.580Z,98760.77395703876
2022-11-03T00:51:18.024Z,98766.90110472783
2022-11-03T00:54:16.935Z,98772.04799993851
2022-11-03T00:57:16.084Z,98768.3057489535
2022-11-03T01:01:18.375Z,98762.17971475131
2022-11-03T01:21:16.485Z,98763.03862641827
2022-11-03T01:24:16.085Z,98759.67452295801
2022-11-03T01:27:19.012Z,98760.88799311634
2022-11-03T01:31:21.587Z,98761.22803590415
2022-11-03T01:34:19.226Z,98764.18662113466
2022-11-03T01:37:17.149Z,98758.60665638284
2022-11-03T01:41:19.312Z,98755.79843819304
2022-11-03T01:44:32.024Z,98758.22879671965
2022-11-03T01:47:22.845Z,98753.5833405416
2022-11-03T01:51:18.239Z,98745.27062462889
2022-11-03T01:54:20.502Z,98737.34900762183
2022-11-03T01:57:22.833Z,98743.62522106708
2022-11-03T02:01:16.851Z,98745.81851543726
2022-11-03T02:04:20.452Z,98741.49260293832
2022-11-03T02:07:23.845Z,98738.96796503739
2022-11-03T02:12:22.236Z,98737.72367203922
2022-11-03T02:14:17.719Z,98729.83963244976
2022-11-03T02:17:18.882Z,98730.42363448591
2022-11-03T02:21:26.034Z,98727.92338435358
2022-11-03T02:24:26.414Z,98722.20633245494
2022-11-03T02:27:16.740Z,98723.4937583205
2022-11-03T02:31:25.152Z,98719.73416400832
2022-11-03T02:34:22.699Z,98715.96876792435
2022-11-03T02:37:20.841Z,98714.67363926917
2022-11-03T02:41:17.849Z,98712.67847223516
2022-11-03T02:44:18.819Z,98710.12604275082
2022-11-03T02:47:18.374Z,98714.25121097876
2022-11-03T02:51:16.426Z,98708.12720236249
2022-11-03T02:54:23.817Z,98704.90551768988
2022-11-03T02:57:20.851Z,98710.27416880996
2022-11-03T03:01:19.575Z,98703.47490221352
2022-11-03T03:04:22.061Z,98704.18356360657
2022-11-03T03:07:21.689Z,98703.59383536865
2022-11-03T03:11:16.978Z,98708.6009216822
2022-11-03T03:14:21.285Z,98709.9677603979
2022-11-03T03:17:23.475Z,98706.98945511645
2022-11-03T03:21:21.754Z,98704.68182077612
2022-11-03T03:24:24.429Z,98705.29043593799
2022-11-03T03:27:19.871Z,98701.75841754382
2022-11-03T03:31:19.003Z,98704.65410413954
2022-11-03T03:34:34.524Z,98701.89478703016
2022-11-03T03:37:18.130Z,98697.03549474015
2022-11-03T03:41:24.544Z,98692.80517230471
2022-11-03T03:44:18.403Z,98686.05569537182
2022-11-03T03:47:21.294Z,98687.56616758983
2022-11-03T03:51:19.521Z,98683.09566450736
2022-11-03T03:54:16.675Z,98683.70964492124
2022-11-03T03:57:19.918Z,98681.20872571754
2022-11-03T04:01:16.766Z,98683.8267125298
2022-11-03T04:04:17.144Z,98683.69386068775
2022-11-03T04:07:49.213Z,98678.29896932124
2022-11-03T04:22:25.162Z,98684.31278450317
2022-11-03T04:24:16.597Z,98683.10615831993
2022-11-03T04:27:27.165Z,98675.49030618307
2022-11-03T04:31:19.337Z,98667.00554331926
2022-11-03T04:34:18.735Z,98672.7197394113
2022-11-03T04:37:18.921Z,98676.18391627325
2022-11-03T04:41:19.477Z,98671.25269222882
2022-11-03T04:44:16.511Z,98672.25188536223
2022-11-03T04:47:17.854Z,98675.21521696367
2022-11-03T04:51:19.353Z,98672.56450366444
2022-11-03T04:54:21.058Z,98667.27166094098
2022-11-03T04:57:17.550Z,98665.49665441489
2022-11-03T05:01:23.969Z,98665.49861658241
2022-11-03T05:04:18.158Z,98667.41180406306
2022-11-03T05:07:33.654Z,98666.21406514535
2022-11-03T05:11:29.796Z,98665.40904444632
2022-11-03T05:14:19.872Z,98661.75170892538
2022-11-03T05:17:22.269Z,98662.27284629391
2022-11-03T05:21:18.500Z,98662.71608556507
2022-11-03T05:24:21.005Z,98672.34359455381
2022-11-03T05:27:20.667Z,98669.54460312388
2022-11-03T05:31:22.083Z,98669.7891979257
2022-11-03T05:34:29.199Z,98665.49482329084
2022-11-03T05:37:27.404Z,98667.36849530513
2022-11-03T05:41:21.583Z,98667.11244388254
2022-11-03T05:44:27.753Z,98672.98399277523
2022-11-03T05:47:21.712Z,98670.11129814941
2022-11-03T05:51:20.883Z,98680.87456118602
2022-11-03T05:54:21.964Z,98681.00429308455
2022-11-03T05:57:17.962Z,98687.16509604666
2022-11-03T06:01:24.152Z,98683.01524479201
2022-11-03T06:04:20.298Z,98683.57195114164
2022-11-03T06:07:24.205Z,98686.79133216609
2022-11-03T06:11:24.855Z,98692.85243998659
2022-11-03T06:14:24.082Z,98698.72946059874
2022-11-03T06:17:21.666Z,98699.65503083792
2022-11-03T06:21:23.755Z,98701.86376732333
2022-11-03T06:24:20.215Z,98700.91564161355
2022-11-03T06:27:22.167Z,98706.87158520336
2022-11-03T06:31:23.042Z,98711.37210129556
2022-11-03T06:34:29.339Z,98711.04452991231
2022-11-03T06:37:22.525Z,98712.74971076183
2022-11-03T06:41:22.878Z,98713.21989354119
2022-11-03T06:44:22.247Z,98719.8556874096
2022-11-03T06:47:21.673Z,98724.06648741526
2022-11-03T06:51:20.007Z,98718.86438581256
2022-11-03T06:54:17.581Z,98728.42246417119
2022-11-03T06:57:18.837Z,98725.3237962641
2022-11-03T07:01:19.924Z,98716.33934205442
2022-11-03T07:04:22.087Z,98711.28612188817
2022-11-03T07:07:25.681Z,98713.67051555346
2022-11-03T07:11:18.774Z,98710.74865656786
2022-11-03T07:14:19.067Z,98719.1500487691
2022-11-03T07:17:20.559Z,98720.42991438962
2022-11-03T07:21:28.065Z,98721.24366602444
2022-11-03T07:24:21.375Z,98725.18464858833
2022-11-03T07:27:21.405Z,98727.82027996825
2022-11-03T07:31:21.767Z,98722.72639068993
2022-11-03T07:34:21.968Z,98714.25729769251
2022-11-03T07:37:19.868Z,98711.97671907986
2022-11-03T07:41:20.099Z,98712.47684771585
2022-11-03T07:44:19.683Z,98703.51071211834
2022-11-03T07:47:21.008Z,98709.9068214543
2022-11-03T07:51:21.599Z,98707.3245418732
2022-11-03T07:54:20.417Z,98704.62344924228
2022-11-03T07:57:21.806Z,98696.5282835224
2022-11-03T08:01:23.807Z,98687.36733800406
2022-11-03T08:04:19.564Z,98693.280661726
2022-11-03T08:07:21.695Z,98685.00761723073
2022-11-03T08:11:18.052Z,98685.39790273404
2022-11-03T08:14:18.647Z,98682.28052628391
2022-11-03T08:17:17.964Z,98687.13364017912
2022-11-03T08:21:17.595Z,98688.56223793082
2022-11-03T08:24:17.149Z,98683.100350886
2022-11-03T08:27:17.666Z,98681.60169694538
2022-11-03T08:31:18.127Z,98684.1504848709
2022-11-03T08:34:17.074Z,98682.85298405566
2022-11-03T08:37:17.161Z,98682.09153368782
2022-11-03T08:41:16.147Z,98682.28144963345
2022-11-03T08:44:16.595Z,98680.02296340014
2022-11-03T08:47:16.834Z,98681.83301023715
2022-11-03T08:51:16.060Z,98676.2956975256
2022-11-03T08:54:16.346Z,98672.46834602642
2022-11-03T08:57:16.320Z,98673.93868335421
2022-11-03T09:01:17.575Z,98673.48296301696
2022-11-03T09:04:17.637Z,98676.30844514724
2022-11-03T09:07:18.066Z,98674.70773369302
2022-11-03T09:11:16.461Z,98670.2285017206
2022-11-03T09:14:17.537Z,98669.73974394996
2022-11-03T09:17:16.504Z,98671.0275170936
2022-11-03T09:21:16.317Z,98663.10003942961
2022-11-03T09:24:16.914Z,98656.92899593813
2022-11-03T09:27:17.007Z,98651.32237754889
2022-11-03T09:31:15.884Z,98646.02641170239
2022-11-03T09:34:17.821Z,98648.30209737753
2022-11-03T09:37:16.603Z,98649.70548656255
2022-11-03T09:41:26.265Z,98648.00818129699
2022-11-03T09:44:17.560Z,98640.63570412812
2022-11-03T09:47:22.181Z,98639.11436875944
2022-11-03T09:51:20.059Z,98637.2125685361
2022-11-03T09:54:16.963Z,98636.43767441205
2022-11-03T09:57:17.178Z,98634.71600424389
2022-11-03T10:01:16.452Z,98626.46931947011
2022-11-03T10:04:27.753Z,98629.80290905606
2022-11-03T10:07:17.265Z,98629.43257102359
2022-11-03T10:11:17.869Z,98623.033543578
2022-11-03T10:14:17.991Z,98618.95755960923
2022-11-03T10:17:19.339Z,98615.76605952712
2022-11-03T10:21:18.392Z,98608.2549926459
2022-11-03T10:24:16.288Z,98604.34411119357
2022-11-03T10:27:21.404Z,98594.77167523115
2022-11-03T10:31:20.637Z,98591.64409428135
2022-11-03T10:34:31.242Z,98587.51294228567
2022-11-03T10:37:21.808Z,98587.81054818351
2022-11-03T10:41:18.256Z,98581.70991136563
2022-11-03T10:44:18.031Z,98576.24372682306
2022-11-03T10:47:31.584Z,98570.53266462796
2022-11-03T10:51:15.846Z,98559.3267783253
2022-11-03T10:54:19.726Z,98561.38961191228
2022-11-03T10:57:17.272Z,98560.48128099665
2022-11-03T11:01:16.710Z,98552.22449495738
2022-11-03T11:04:19.753Z,98545.80715320086
2022-11-03T11:07:21.047Z,98541.03603255568
2022-11-03T11:11:17.423Z,98541.34339797277
2022-11-03T11:14:35.781Z,98537.44732877343
2022-11-03T11:17:40.840Z,98535.74838319904
2022-11-03T11:22:22.489Z,98526.79558753213
2022-11-03T11:24:59.665Z,98527.32732443402
2022-11-03T11:28:29.070Z,98524.82284036213
2022-11-03T11:31:45.031Z,98522.13658443282
2022-11-03T11:34:51.928Z,98511.47979900129
2022-11-03T11:37:36.147Z,98505.9492697373
2022-11-03T11:41:16.368Z,98507.29485064457
2022-11-03T11:44:47.977Z,98499.99959922585
2022-11-03T11:51:16.515Z,98500.4969967382
2022-11-03T11:54:20.061Z,98502.6542955628
2022-11-03T11:57:20.735Z,98498.37856635092
2022-11-03T12:01:23.244Z,98489.63482392875
2022-11-03T12:04:22.088Z,98487.68832149568
2022-11-03T12:07:30.554Z,98481.61174833795
2022-11-03T12:11:45.460Z,98477.73361711208
2022-11-03T12:14:26.209Z,98467.54379161376
2022-11-03T12:17:34.398Z,98464.73609871458
2022-11-03T12:21:45.962Z,98457.79307940746
2022-11-03T12:24:37.378Z,98451.87167800847
2022-11-03T12:27:39.106Z,98447.44103409018
2022-11-03T12:31:16.890Z,98451.85418832264
2022-11-03T12:34:17.319Z,98442.84005705322
2022-11-03T12:37:18.918Z,98434.33328484802
2022-11-03T12:41:24.847Z,98430.22423497464
2022-11-03T12:44:17.067Z,98428.82327337269
2022-11-03T12:47:17.412Z,98425.47416139297
2022-11-03T12:51:17.795Z,98420.1123374934
2022-11-03T12:54:16.139Z,98421.56345832301
2022-11-03T12:57:16.580Z,98418.96119829713
2022-11-03T13:01:16.827Z,98421.35462346835
2022-11-03T13:04:16.604Z,98414.81560944594
2022-11-03T13:07:20.522Z,98408.02559996565
2022-11-03T13:21:17.876Z,98396.86719467891
2022-11-03T13:24:16.981Z,98396.06976309858
2022-11-03T13:27:18.061Z,98397.56385885247
2022-11-03T13:31:17.143Z,98394.55970161362
2022-11-03T13:34:16.921Z,98382.89041827223
2022-11-03T13:37:16.617Z,98386.27819664137
2022-11-03T13:41:16.893Z,98371.812344273
2022-11-03T13:44:17.149Z,98362.88650807274
2022-11-03T13:47:17.566Z,98364.8267245282
2022-11-03T13:51:17.954Z,98365.64829551532
2022-11-03T14:01:16.918Z,98369.94735011511
2022-11-03T14:04:44.016Z,98365.84039578524
2022-11-03T14:07:16.449Z,98357.36080548726
2022-11-03T14:21:16.233Z,98366.84189743988
2022-11-03T14:24:16.895Z,98362.23468462913
2022-11-03T14:27:17.699Z,98359.99759187545
2022-11-03T14:31:16.690Z,98357.85738576512
2022-11-03T14:34:17.128Z,98353.583255884
2022-11-03T14:37:17.470Z,98355.38915343164
2022-11-03T14:42:21.734Z,98353.41681922875
2022-11-03T14:44:17.386Z,98355.21995527291
2022-11-03T14:47:19.085Z,98347.40974775515
2022-11-03T14:51:17.999Z,98345.1059542125
2022-11-03T14:54:19.062Z,98346.77520582032
2022-11-03T14:57:18.347Z,98343.65286910557
2022-11-03T15:01:22.698Z,98341.89654506974
2022-11-03T15:04:17.619Z,98336.05999154197
2022-11-03T15:07:16.707Z,98335.61601759936
2022-11-03T15:11:15.800Z,98338.96960723851
2022-11-03T15:14:16.023Z,98336.0875673899
2022-11-03T15:17:15.967Z,98339.08579696673
2022-11-03T15:21:16.633Z,98326.58498043199
2022-11-03T15:27:16.537Z,98324.78818424376
2022-11-03T15:31:16.316Z,98323.70923468542
2022-11-03T15:34:17.762Z,98319.0734286936
2022-11-03T15:37:43.118Z,98317.69782211022
2022-11-03T15:41:16.572Z,98312.53633094649
2022-11-03T15:44:16.216Z,98312.5898158113
2022-11-03T15:47:16.672Z,98309.22767497002
2022-11-03T15:51:16.730Z,98309.5371937559
2022-11-03T15:54:17.471Z,98303.62096721468
2022-11-03T15:57:17.508Z,98305.48510421343
2022-11-03T16:01:17.097Z,98308.55228501107
2022-11-03T16:04:17.280Z,98306.48764598998
2022-11-03T16:07:17.003Z,98303.35035796207
2022-11-03T16:11:16.388Z,98305.18255143984
2022-11-03T16:14:17.468Z,98300.93318017753
2022-11-03T16:17:17.903Z,98307.20169775501
2022-11-03T16:21:17.123Z,98300.00462098172
2022-11-03T16:24:17.245Z,98299.03134128594
2022-11-03T16:27:17.133Z,98296.04360421616
2022-11-03T16:31:16.925Z,98293.27882917844
2022-11-03T16:34:18.992Z,98294.1722989723
2022-11-03T16:37:17.227Z,98289.90746471543
2022-11-03T16:41:16.095Z,98289.33966762052
2022-11-03T16:44:16.013Z,98291.6168077232
2022-11-03T16:47:15.916Z,98294.23374000407
2022-11-03T16:51:16.255Z,98286.67281996264
2022-11-03T16:54:16.300Z,98285.4072217118
2022-11-03T16:57:16.521Z,98287.8439252216
2022-11-03T17:01:18.108Z,98281.313928408
2022-11-03T17:04:18.848Z,98282.6190927525
2022-11-03T17:07:18.767Z,98277.90983722128
2022-11-03T17:11:15.856Z,98273.40256881774
2022-11-03T17:14:17.112Z,98279.4105111873
2022-11-03T17:17:23.784Z,98283.76522329399
2022-11-03T17:21:18.504Z,98282.5743715252
2022-11-03T17:24:18.160Z,98284.43701181555
2022-11-03T17:27:21.956Z,98281.17069801092
2022-11-03T17:31:16.759Z,98274.11225975872
2022-11-03T17:34:23.098Z,98263.94640046461
2022-11-03T17:37:16.524Z,98258.83332259452
2022-11-03T17:41:18.890Z,98251.56682341527
2022-11-03T17:44:17.621Z,98251.55088242165
2022-11-03T17:47:19.091Z,98237.7870539611
2022-11-03T17:51:15.997Z,98237.09032069688
2022-11-03T17:54:16.405Z,98230.87930514423
2022-11-03T17:57:18.172Z,98226.29355332023
2022-11-03T18:01:24.351Z,98226.85058510418
2022-11-03T18:04:17.577Z,98227.83760544374
2022-11-03T18:07:20.134Z,98226.41779210248
2022-11-03T18:13:20.531Z,98218.10333272537
2022-11-03T18:14:17.652Z,98220.76898429172
2022-11-03T18:17:16.885Z,98222.922798018
2022-11-03T18:21:20.573Z,98218.95333754952
2022-11-03T18:24:18.979Z,98215.34951304848
2022-11-03T18:27:21.318Z,98217.37550793357
2022-11-03T18:31:21.094Z,98217.73735929395
2022-11-03T18:34:23.594Z,98217.45205751978
2022-11-03T18:37:18.377Z,98213.42841319137
2022-11-03T18:41:48.689Z,98210.66709346144
2022-11-03T18:44:20.207Z,98206.7682304414
2022-11-03T18:47:16.041Z,98203.96305472997
2022-11-03T18:51:15.779Z,98199.74553339549
2022-11-03T18:57:21.628Z,98191.64159505928
2022-11-03T19:01:21.624Z,98183.75359670493
2022-11-03T19:04:18.928Z,98184.89555003264
2022-11-03T19:07:22.421Z,98182.94713602729
2022-11-03T19:11:16.111Z,98180.49852007878
2022-11-03T19:14:22.765Z,98180.25766833438
2022-11-03T19:17:23.415Z,98178.52877489825
2022-11-03T19:21:18.467Z,98171.9203760941
2022-11-03T19:24:17.039Z,98171.88670049376
2022-11-03T19:27:20.266Z,98168.6317285396
2022-11-03T19:31:22.889Z,98173.10423947159
2022-11-03T19:34:22.912Z,98171.0074528865
2022-11-03T19:37:18.533Z,98163.60551909478
2022-11-03T19:51:18.220Z,98147.18016037444
2022-11-03T19:54:21.435Z,98142.3524708796
2022-11-03T19:57:17.498Z,98133.80136142594
2022-11-03T20:01:16.733Z,98115.32633116683
2022-11-03T20:04:18.024Z,98116.16430517018
2022-11-03T20:07:17.154Z,98111.20141002012
2022-11-03T20:11:19.657Z,98105.48813560345
2022-11-03T20:14:24.759Z,98107.81855063119
2022-11-03T20:17:19.937Z,98105.42943891285
2022-11-03T20:21:18.483Z,98097.98831777755
2022-11-03T20:24:17.882Z,98088.3875643715
2022-11-03T20:27:22.897Z,98083.58758402783
2022-11-03T20:31:17.017Z,98082.33749663457
2022-11-03T20:34:17.322Z,98081.31446101674
2022-11-03T20:37:19.707Z,98081.6976507548
2022-11-03T20:41:15.837Z,98070.62578614417
2022-11-03T20:44:16.274Z,98061.9375670619
2022-11-03T20:47:18.320Z,98056.45665453079
2022-11-03T20:51:21.663Z,98042.39228873394
2022-11-03T20:54:18.872Z,98050.59170232395
2022-11-03T20:57:16.756Z,98047.98121836389
2022-11-03T21:01:23.834Z,98032.1743160375
2022-11-03T21:04:19.209Z,98033.15838538828
2022-11-03T21:07:17.737Z,98026.8183165734
2022-11-03T21:11:25.196Z,98029.95119130987
2022-11-03T21:14:21.443Z,98038.82416003481
2022-11-03T21:21:20.759Z,98026.6748477719
2022-11-03T21:24:18.475Z,98020.92986972407
2022-11-03T21:27:16.874Z,98018.59272408098
2022-11-03T21:31:16.903Z,98009.58712392751
2022-11-03T21:34:17.190Z,98004.23000214611
2022-11-03T21:37:17.044Z,97985.0348198413
2022-11-03T21:51:16.904Z,97971.09352172315
2022-11-03T21:54:16.937Z,97967.55020216538
2022-11-03T21:57:16.692Z,97960.77914727133
2022-11-03T22:01:16.026Z,97951.41571769721
2022-11-03T22:04:16.107Z,97945.17650661139
2022-11-03T22:07:16.209Z,97942.72920943989
2022-11-03T22:11:23.426Z,97933.00753867882
2022-11-03T22:14:16.576Z,97922.65876143417
2022-11-03T22:17:16.497Z,97914.33132907933
2022-11-03T22:31:49.100Z,97888.36591430086
2022-11-03T22:51:16.966Z,97857.3828996921
2022-11-03T22:54:17.155Z,97851.44775208818
2022-11-03T22:57:17.760Z,97853.19140081144
2022-11-03T23:01:18.299Z,97842.39984643213
2022-11-03T23:04:16.031Z,97841.0122963126
2022-11-03T23:07:17.004Z,97819.74265569927
2022-11-03T23:11:19.788Z,97802.25843891593
2022-11-03T23:14:17.632Z,97809.73245471373
2022-11-03T23:17:16.079Z,97801.22770219254
2022-11-03T23:21:17.560Z,97798.33148919234
2022-11-03T23:25:21.606Z,97786.07191593229
2022-11-03T23:27:16.674Z,97779.56582811748
2022-11-03T23:31:17.947Z,97779.35993249272
2022-11-03T23:34:17.082Z,97776.12039865855
2022-11-03T23:37:17.123Z,97776.31730613664
2022-11-03T23:41:18.054Z,97771.76720536886
2022-11-03T23:44:16.679Z,97761.29611210136
2022-11-03T23:51:18.392Z,97740.49194484725
2022-11-03T23:54:18.607Z,97746.83033541554
